createdAt,value
2023-02-22T00:02:10.544Z,8.80
2023-02-22T00:05:55.289Z,7.60
2023-02-22T00:09:39.380Z,7.87
2023-02-22T00:13:22.860Z,6.90
2023-02-22T00:17:05.590Z,6.50
2023-02-22T00:20:48.355Z,5.60
2023-02-22T00:24:31.370Z,6.00
2023-02-22T00:28:16.999Z,5.80
2023-02-22T00:31:59.780Z,5.53
2023-02-22T00:35:45.847Z,5.90
2023-02-22T00:39:28.502Z,5.03
2023-02-22T00:43:11.228Z,4.90
2023-02-22T00:46:55.292Z,5.63
2023-02-22T00:50:38.481Z,5.90
2023-02-22T00:54:21.217Z,8.87
2023-02-22T00:58:04.606Z,3.70
2023-02-22T01:01:47.572Z,3.87
2023-02-22T01:05:33.202Z,3.80
2023-02-22T01:09:16.184Z,3.80
2023-02-22T01:12:59.902Z,3.90
2023-02-22T01:16:42.753Z,3.77
2023-02-22T01:20:26.202Z,3.60
2023-02-22T01:24:10.489Z,3.87
2023-02-22T01:27:54.536Z,3.83
2023-02-22T01:31:37.220Z,5.47
2023-02-22T01:35:23.118Z,5.27
2023-02-22T01:39:05.777Z,4.07
2023-02-22T01:42:53.383Z,4.93
2023-02-22T01:46:36.078Z,5.50
2023-02-22T01:50:18.746Z,4.57
2023-02-22T01:54:03.252Z,4.50
2023-02-22T01:57:46.000Z,4.10
2023-02-22T02:01:30.971Z,3.80
2023-02-22T02:05:14.576Z,3.40
2023-02-22T02:09:01.999Z,3.27
2023-02-22T02:12:46.977Z,3.27
2023-02-22T02:16:36.752Z,3.33
2023-02-22T02:20:25.498Z,3.00
2023-02-22T02:25:05.152Z,3.03
2023-02-22T02:29:08.343Z,3.00
2023-02-22T02:32:58.706Z,2.43
2023-02-22T02:36:47.178Z,2.33
2023-02-22T02:40:36.216Z,2.37
2023-02-22T02:44:23.507Z,2.47
2023-02-22T02:48:10.959Z,2.47
2023-02-22T02:51:55.048Z,2.77
2023-02-22T02:55:38.653Z,2.53
2023-02-22T02:59:29.290Z,2.33
2023-02-22T03:03:44.738Z,2.47
2023-02-22T03:07:40.890Z,2.30
2023-02-22T03:11:27.272Z,2.60
2023-02-22T03:15:18.719Z,2.53
2023-02-22T03:19:06.040Z,2.50
2023-02-22T03:22:56.426Z,2.53
2023-02-22T03:26:41.517Z,2.47
2023-02-22T03:30:27.786Z,2.80
2023-02-22T03:34:13.289Z,2.80
2023-02-22T03:38:00.372Z,2.43
2023-02-22T03:41:45.350Z,2.80
2023-02-22T03:45:30.546Z,2.50
2023-02-22T03:49:15.593Z,2.90
2023-02-22T03:53:00.125Z,3.07
2023-02-22T03:56:50.000Z,2.80
2023-02-22T04:00:34.508Z,3.07
2023-02-22T04:04:18.434Z,2.77
2023-02-22T04:08:02.563Z,3.83
2023-02-22T04:11:45.339Z,3.40
2023-02-22T04:15:28.022Z,3.07
2023-02-22T04:19:10.687Z,3.30
2023-02-22T04:22:54.032Z,3.23
2023-02-22T04:26:38.110Z,2.90
2023-02-22T04:30:21.508Z,3.37
2023-02-22T04:34:04.551Z,3.30
2023-02-22T04:37:47.236Z,3.33
2023-02-22T04:41:31.575Z,3.07
2023-02-22T04:45:15.643Z,3.47
2023-02-22T04:48:58.686Z,2.63
2023-02-22T04:52:41.756Z,3.33
2023-02-22T04:56:24.570Z,4.27
2023-02-22T05:00:10.230Z,4.30
2023-02-22T05:03:54.483Z,4.73
2023-02-22T05:07:37.622Z,4.23
2023-02-22T05:11:20.279Z,3.93
2023-02-22T05:15:04.262Z,3.20
2023-02-22T05:18:46.909Z,3.67
2023-02-22T05:22:31.082Z,3.20
2023-02-22T05:26:13.781Z,3.57
2023-02-22T05:29:56.430Z,3.23
2023-02-22T05:33:39.595Z,3.77
2023-02-22T05:37:22.311Z,3.40
2023-02-22T05:41:09.223Z,3.27
2023-02-22T05:44:52.036Z,3.37
2023-02-22T05:48:34.820Z,3.20
2023-02-22T05:52:17.641Z,3.63
2023-02-22T05:56:00.399Z,3.13
2023-02-22T05:59:44.500Z,3.27
2023-02-22T06:03:27.295Z,3.20
2023-02-22T06:07:09.956Z,3.03
2023-02-22T06:10:52.745Z,2.87
2023-02-22T06:14:35.897Z,3.40
2023-02-22T06:18:20.111Z,3.40
2023-02-22T06:22:03.138Z,3.33
2023-02-22T06:25:45.851Z,3.03
2023-02-22T06:29:30.199Z,3.50
2023-02-22T06:33:13.047Z,3.23
2023-02-22T06:36:59.133Z,3.70
2023-02-22T06:40:43.777Z,3.57
2023-02-22T06:44:26.981Z,3.10
2023-02-22T06:48:10.188Z,3.77
2023-02-22T06:51:52.903Z,5.67
2023-02-22T06:55:37.359Z,3.50
2023-02-22T06:59:20.011Z,3.80
2023-02-22T07:03:02.807Z,3.87
2023-02-22T07:06:47.546Z,3.10
2023-02-22T07:10:32.329Z,3.37
2023-02-22T07:14:17.729Z,3.30
2023-02-22T07:18:00.920Z,3.20
2023-02-22T07:21:43.594Z,3.23
2023-02-22T07:25:26.539Z,3.87
2023-02-22T07:29:11.317Z,3.20
2023-02-22T07:32:56.110Z,3.70
2023-02-22T07:36:38.798Z,3.70
2023-02-22T07:40:22.043Z,3.33
2023-02-22T07:44:05.015Z,3.77
2023-02-22T07:47:48.215Z,3.10
2023-02-22T07:51:32.317Z,4.40
2023-02-22T07:55:16.768Z,3.17
2023-02-22T07:59:00.684Z,3.57
2023-02-22T08:02:43.683Z,3.07
2023-02-22T08:06:28.168Z,2.80
2023-02-22T08:10:12.484Z,2.57
2023-02-22T08:13:55.144Z,3.13
2023-02-22T08:17:38.463Z,2.93
2023-02-22T08:21:21.204Z,3.70
2023-02-22T08:25:04.041Z,3.37
2023-02-22T08:28:48.098Z,2.90
2023-02-22T08:32:30.991Z,5.93
2023-02-22T08:36:13.740Z,10.53
2023-02-22T08:39:56.765Z,2.80
2023-02-22T08:43:39.445Z,2.93
2023-02-22T08:47:23.475Z,2.67
2023-02-22T08:51:06.376Z,2.70
2023-02-22T08:54:49.446Z,2.70
2023-02-22T08:58:32.096Z,2.87
2023-02-22T09:02:17.365Z,2.87
2023-02-22T09:06:01.593Z,2.50
2023-02-22T09:09:44.496Z,2.50
2023-02-22T09:13:27.186Z,2.20
2023-02-22T09:17:10.217Z,2.20
2023-02-22T09:20:53.290Z,2.20
2023-02-22T09:24:39.566Z,2.30
2023-02-22T09:28:22.371Z,2.07
2023-02-22T09:32:05.738Z,2.43
2023-02-22T09:35:50.047Z,1.80
2023-02-22T09:39:37.461Z,1.90
2023-02-22T09:43:35.666Z,1.93
2023-02-22T09:47:20.249Z,1.63
2023-02-22T09:51:04.611Z,1.83
2023-02-22T09:54:51.835Z,1.60
2023-02-22T09:58:37.839Z,2.90
2023-02-22T10:02:26.414Z,1.50
2023-02-22T10:06:12.898Z,1.70
2023-02-22T10:09:57.285Z,1.80
2023-02-22T10:13:51.266Z,1.63
2023-02-22T10:17:37.477Z,1.50
2023-02-22T10:21:32.112Z,1.93
2023-02-22T10:25:19.275Z,1.73
2023-02-22T10:29:05.434Z,1.83
2023-02-22T10:32:52.536Z,1.60
2023-02-22T10:36:39.081Z,1.90
2023-02-22T10:40:32.196Z,1.43
2023-02-22T10:44:16.981Z,1.33
2023-02-22T10:48:01.663Z,1.17
2023-02-22T10:51:44.358Z,1.20
2023-02-22T10:55:27.462Z,1.47
2023-02-22T10:59:10.194Z,1.10
2023-02-22T11:02:56.096Z,1.30
2023-02-22T11:06:39.766Z,1.27
2023-02-22T11:10:38.739Z,1.30
2023-02-22T11:14:28.384Z,1.00
2023-02-22T11:18:24.288Z,1.20
2023-02-22T11:22:12.050Z,2.43
2023-02-22T11:26:03.057Z,1.67
2023-02-22T11:29:51.025Z,2.70
2023-02-22T11:33:35.151Z,1.30
2023-02-22T11:37:25.926Z,1.23
2023-02-22T11:41:15.597Z,1.63
2023-02-22T11:45:13.519Z,1.30
2023-02-22T11:49:02.161Z,1.50
2023-02-22T11:52:47.120Z,1.33
2023-02-22T11:56:38.103Z,1.20
2023-02-22T12:00:27.152Z,1.20
2023-02-22T12:04:45.915Z,1.27
2023-02-22T12:08:37.351Z,1.20
2023-02-22T12:12:24.176Z,1.07
2023-02-22T12:16:15.650Z,1.30
2023-02-22T12:20:06.906Z,1.60
2023-02-22T12:23:55.763Z,2.90
2023-02-22T12:27:42.369Z,4.97
2023-02-22T12:31:28.591Z,5.73
2023-02-22T12:35:16.659Z,1.50
2023-02-22T12:39:07.603Z,2.33
2023-02-22T12:42:56.921Z,1.30
2023-02-22T12:46:42.788Z,1.00
2023-02-22T12:50:28.916Z,1.23
2023-02-22T12:54:19.951Z,0.93
2023-02-22T12:58:08.724Z,1.03
2023-02-22T13:01:53.734Z,1.07
2023-02-22T13:05:40.170Z,0.60
2023-02-22T13:09:49.534Z,0.68
2023-02-22T13:13:37.994Z,0.60
2023-02-22T13:17:26.231Z,1.00
2023-02-22T13:21:16.629Z,0.70
2023-02-22T13:25:05.810Z,0.60
2023-02-22T13:28:52.008Z,0.75
2023-02-22T13:32:44.189Z,0.70
2023-02-22T13:36:38.643Z,0.70
2023-02-22T13:40:50.899Z,0.90
2023-02-22T13:45:09.313Z,0.50
2023-02-22T13:49:24.127Z,0.47
2023-02-22T13:53:12.631Z,1.00
2023-02-22T13:56:57.633Z,1.10
2023-02-22T14:00:48.086Z,0.75
2023-02-22T14:04:42.937Z,0.70
2023-02-22T14:08:42.209Z,0.60
2023-02-22T14:12:49.987Z,0.65
2023-02-22T14:16:33.890Z,0.80
2023-02-22T14:20:30.085Z,0.70
2023-02-22T14:24:15.427Z,1.40
2023-02-22T14:27:59.755Z,1.60
2023-02-22T14:32:01.711Z,2.00
2023-02-22T14:35:50.175Z,1.60
2023-02-22T14:39:38.306Z,1.90
2023-02-22T14:43:23.795Z,1.65
2023-02-22T14:47:08.998Z,1.90
2023-02-22T14:50:54.859Z,1.60
2023-02-22T14:54:46.835Z,1.83
2023-02-22T14:58:36.368Z,1.90
2023-02-22T15:02:20.634Z,2.37
2023-02-22T15:06:07.491Z,2.20
2023-02-22T15:09:51.112Z,1.83
2023-02-22T15:13:35.237Z,1.70
2023-02-22T15:17:21.063Z,2.10
2023-02-22T15:21:07.172Z,5.50
2023-02-22T15:24:59.980Z,1.87
2023-02-22T15:28:44.175Z,1.83
2023-02-22T15:32:33.448Z,2.00
2023-02-22T15:36:18.469Z,1.70
2023-02-22T15:40:14.900Z,2.10
2023-02-22T15:44:22.804Z,2.20
2023-02-22T15:48:07.964Z,1.90
2023-02-22T15:52:03.718Z,1.90
2023-02-22T15:55:49.276Z,1.70
2023-02-22T15:59:34.994Z,2.97
2023-02-22T16:03:23.024Z,2.67
2023-02-22T16:07:16.796Z,2.00
2023-02-22T16:11:01.002Z,2.20
2023-02-22T16:14:45.425Z,2.20
2023-02-22T16:18:31.543Z,2.27
2023-02-22T16:22:27.454Z,2.80
2023-02-22T16:26:25.135Z,2.57
2023-02-22T16:30:25.822Z,2.47
2023-02-22T16:34:11.140Z,2.47
2023-02-22T16:38:00.340Z,2.30
2023-02-22T16:41:47.100Z,2.37
2023-02-22T16:45:31.325Z,3.20
2023-02-22T16:49:14.770Z,2.90
2023-02-22T16:52:59.634Z,2.87
2023-02-22T16:56:42.363Z,3.00
2023-02-22T17:00:31.969Z,2.70
2023-02-22T17:04:17.989Z,6.20
2023-02-22T17:08:00.699Z,3.60
2023-02-22T17:11:44.204Z,3.40
2023-02-22T17:15:30.221Z,3.67
2023-02-22T17:19:17.748Z,3.13
2023-02-22T17:23:02.245Z,3.97
2023-02-22T17:26:44.922Z,4.17
2023-02-22T17:30:28.096Z,3.40
2023-02-22T17:34:11.437Z,3.27
2023-02-22T17:37:55.542Z,6.73
2023-02-22T17:41:40.284Z,6.47
2023-02-22T17:45:24.325Z,5.70
2023-02-22T17:49:07.069Z,7.47
2023-02-22T17:52:52.005Z,4.93
2023-02-22T17:56:36.156Z,6.83
2023-02-22T18:00:23.723Z,6.23
2023-02-22T18:04:07.194Z,5.30
2023-02-22T18:07:49.839Z,6.40
2023-02-22T18:11:32.581Z,6.43
2023-02-22T18:15:17.613Z,6.00
2023-02-22T18:19:01.567Z,5.47
2023-02-22T18:22:45.336Z,4.40
2023-02-22T18:26:28.468Z,4.70
2023-02-22T18:30:12.996Z,5.73
2023-02-22T18:33:57.510Z,5.67
2023-02-22T18:37:40.278Z,6.33
2023-02-22T18:41:25.942Z,5.93
2023-02-22T18:45:09.201Z,6.43
2023-02-22T18:48:54.005Z,6.50
2023-02-22T18:52:45.675Z,5.20
2023-02-22T18:56:30.524Z,5.90
2023-02-22T19:00:18.747Z,6.07
2023-02-22T19:04:01.521Z,6.57
2023-02-22T19:07:45.731Z,6.27
2023-02-22T19:11:28.540Z,6.57
2023-02-22T19:15:12.098Z,7.40
2023-02-22T19:18:57.099Z,12.23
2023-02-22T19:22:40.201Z,8.20
2023-02-22T19:26:25.488Z,9.50
2023-02-22T19:30:09.959Z,7.97
2023-02-22T19:33:54.872Z,8.30
2023-02-22T19:37:38.515Z,9.13
2023-02-22T19:41:23.966Z,9.23
2023-02-22T19:45:08.623Z,10.13
2023-02-22T19:48:52.098Z,9.20
2023-02-22T19:52:35.494Z,9.30
2023-02-22T19:56:19.998Z,9.73
2023-02-22T20:00:10.800Z,10.03
2023-02-22T20:03:59.747Z,10.13
2023-02-22T20:07:42.621Z,10.07
2023-02-22T20:11:26.800Z,10.70
2023-02-22T20:15:11.832Z,10.10
2023-02-22T20:18:56.232Z,10.80
2023-02-22T20:22:40.536Z,11.93
2023-02-22T20:26:26.671Z,9.67
2023-02-22T20:30:10.962Z,10.37
2023-02-22T20:33:57.029Z,10.87
2023-02-22T20:37:42.585Z,9.90
2023-02-22T20:41:28.497Z,10.17
2023-02-22T20:45:15.131Z,9.57
2023-02-22T20:49:00.869Z,10.70
2023-02-22T20:52:45.254Z,10.23
2023-02-22T20:56:30.266Z,10.37
2023-02-22T21:00:18.054Z,9.67
2023-02-22T21:04:02.906Z,10.67
2023-02-22T21:07:45.564Z,10.40
2023-02-22T21:11:31.279Z,10.17
2023-02-22T21:15:14.375Z,10.17
2023-02-22T21:18:58.506Z,10.10
2023-02-22T21:22:43.827Z,10.33
2023-02-22T21:26:28.811Z,10.90
2023-02-22T21:30:12.592Z,10.90
2023-02-22T21:33:56.961Z,11.27
2023-02-22T21:37:39.707Z,11.53
2023-02-22T21:41:27.797Z,11.30
2023-02-22T21:45:13.624Z,10.47
2023-02-22T21:48:58.828Z,10.67
2023-02-22T21:52:41.760Z,10.50
2023-02-22T21:56:27.507Z,10.60
2023-02-22T22:00:18.250Z,11.13
2023-02-22T22:04:01.812Z,11.23
2023-02-22T22:07:45.062Z,10.90
2023-02-22T22:11:30.613Z,11.10
2023-02-22T22:15:16.341Z,10.87
2023-02-22T22:18:59.029Z,10.97
2023-02-22T22:22:43.407Z,11.80
2023-02-22T22:26:27.342Z,10.87
2023-02-22T22:30:13.216Z,11.50
2023-02-22T22:33:56.881Z,12.17
2023-02-22T22:37:39.528Z,11.43
2023-02-22T22:41:22.415Z,11.40
2023-02-22T22:45:08.957Z,13.07
2023-02-22T22:48:52.929Z,12.77
2023-02-22T22:52:37.567Z,11.83
2023-02-22T22:56:25.902Z,12.60
2023-02-22T23:00:26.658Z,12.37
2023-02-22T23:04:11.992Z,13.13
2023-02-22T23:07:56.169Z,12.33
2023-02-22T23:11:44.185Z,12.67
2023-02-22T23:15:27.079Z,13.43
2023-02-22T23:19:11.312Z,12.70
2023-02-22T23:22:54.514Z,12.37
2023-02-22T23:26:37.119Z,11.77
2023-02-22T23:30:20.126Z,12.03
2023-02-22T23:34:10.923Z,12.13
2023-02-22T23:37:57.818Z,12.70
2023-02-22T23:41:40.498Z,13.30
2023-02-22T23:45:24.344Z,13.00
2023-02-22T23:49:09.770Z,13.37
2023-02-22T23:52:57.909Z,13.23
2023-02-22T23:56:47.045Z,13.23
